createdAt,value
2023-09-23T00:00:36.986Z,10.70
2023-09-23T00:03:29.155Z,6.00
2023-09-23T00:06:01.776Z,5.90
2023-09-23T00:08:38.748Z,8.80
2023-09-23T00:11:11.971Z,7.10
2023-09-23T00:13:44.595Z,10.10
2023-09-23T00:16:17.525Z,5.20
2023-09-23T00:18:50.010Z,7.30
2023-09-23T00:21:22.923Z,7.50
2023-09-23T00:23:56.628Z,5.70
2023-09-23T00:26:29.727Z,7.60
2023-09-23T00:29:02.188Z,5.00
2023-09-23T00:31:38.419Z,6.50
2023-09-23T00:34:10.617Z,6.30
2023-09-23T00:36:42.907Z,6.70
2023-09-23T00:39:18.992Z,5.90
2023-09-23T00:41:51.652Z,6.90
2023-09-23T00:44:23.937Z,5.70
2023-09-23T00:46:57.671Z,9.00
2023-09-23T00:49:31.542Z,8.50
2023-09-23T00:52:07.276Z,11.40
2023-09-23T00:54:42.129Z,9.40
2023-09-23T00:57:18.588Z,8.60
2023-09-23T00:59:51.123Z,10.40
2023-09-23T01:02:25.014Z,8.10
2023-09-23T01:04:57.352Z,13.20
2023-09-23T01:07:32.781Z,7.60
2023-09-23T01:10:05.912Z,7.40
2023-09-23T01:12:40.724Z,9.80
2023-09-23T01:15:14.230Z,12.40
2023-09-23T01:17:51.186Z,9.00
2023-09-23T01:20:24.710Z,10.10
2023-09-23T01:23:00.494Z,10.70
2023-09-23T01:25:39.650Z,9.70
2023-09-23T01:28:16.095Z,9.60
2023-09-23T01:30:48.690Z,11.10
2023-09-23T01:33:21.062Z,7.90
2023-09-23T01:35:56.941Z,8.50
2023-09-23T01:38:29.221Z,15.10
2023-09-23T01:41:03.376Z,10.00
2023-09-23T01:43:37.008Z,7.80
2023-09-23T01:46:09.925Z,10.10
2023-09-23T01:48:42.178Z,9.50
2023-09-23T01:51:17.938Z,12.00
2023-09-23T01:53:50.153Z,11.00
2023-09-23T01:56:22.465Z,8.80
2023-09-23T01:58:54.453Z,9.30
2023-09-23T02:01:27.804Z,10.40
2023-09-23T02:04:01.048Z,10.50
2023-09-23T02:06:39.003Z,10.30
2023-09-23T02:09:11.508Z,8.60
2023-09-23T02:11:44.138Z,9.80
2023-09-23T02:14:17.042Z,8.10
2023-09-23T02:16:49.610Z,12.40
2023-09-23T02:19:23.447Z,13.90
2023-09-23T02:21:56.176Z,8.80
2023-09-23T02:24:28.859Z,11.40
2023-09-23T02:27:01.319Z,12.30
2023-09-23T02:29:34.497Z,14.10
2023-09-23T02:32:08.183Z,11.30
2023-09-23T02:34:41.353Z,11.20
2023-09-23T02:37:14.283Z,13.10
2023-09-23T02:39:46.920Z,9.20
2023-09-23T02:42:19.626Z,15.80
2023-09-23T02:44:51.708Z,10.60
2023-09-23T02:47:24.153Z,11.60
2023-09-23T02:49:56.835Z,11.40
2023-09-23T02:52:30.549Z,17.50
2023-09-23T02:55:02.879Z,13.60
2023-09-23T02:57:39.266Z,13.50
2023-09-23T03:00:19.888Z,16.20
2023-09-23T03:02:57.105Z,15.20
2023-09-23T03:05:33.024Z,12.40
2023-09-23T03:08:15.317Z,12.20
2023-09-23T03:10:48.407Z,15.40
2023-09-23T03:13:25.077Z,13.40
2023-09-23T03:16:07.728Z,15.20
2023-09-23T03:18:56.318Z,13.40
2023-09-23T03:21:29.979Z,9.20
2023-09-23T03:24:03.433Z,10.00
2023-09-23T03:26:35.631Z,13.00
2023-09-23T03:29:09.777Z,14.10
2023-09-23T03:31:42.260Z,12.20
2023-09-23T03:34:15.738Z,13.50
2023-09-23T03:36:48.243Z,11.50
2023-09-23T03:39:20.634Z,14.30
2023-09-23T03:41:53.597Z,10.10
2023-09-23T03:44:25.985Z,15.10
2023-09-23T03:47:08.808Z,12.70
2023-09-23T03:49:45.102Z,12.30
2023-09-23T03:52:17.485Z,11.70
2023-09-23T03:54:50.390Z,12.50
2023-09-23T03:57:22.708Z,14.10
2023-09-23T03:59:55.077Z,10.80
2023-09-23T04:02:27.419Z,15.00
2023-09-23T04:04:59.982Z,14.80
2023-09-23T04:07:32.419Z,16.50
2023-09-23T04:10:04.849Z,18.00
2023-09-23T04:12:39.015Z,14.10
2023-09-23T04:15:12.556Z,13.50
2023-09-23T04:17:45.533Z,15.70
2023-09-23T04:20:19.477Z,16.30
2023-09-23T04:22:52.098Z,12.90
2023-09-23T04:25:24.619Z,16.50
2023-09-23T04:27:57.222Z,12.90
2023-09-23T04:30:29.614Z,16.90
2023-09-23T04:33:02.672Z,14.30
2023-09-23T04:35:37.082Z,11.60
2023-09-23T04:38:11.484Z,12.70
2023-09-23T04:40:46.843Z,16.20
2023-09-23T04:43:22.863Z,21.50
2023-09-23T04:45:55.348Z,18.30
2023-09-23T04:48:28.185Z,21.70
2023-09-23T04:51:00.771Z,20.40
2023-09-23T04:53:34.708Z,21.10
2023-09-23T04:56:10.386Z,20.20
2023-09-23T04:58:43.569Z,18.50
2023-09-23T05:01:20.295Z,16.50
2023-09-23T05:03:53.793Z,19.20
2023-09-23T05:06:26.516Z,15.50
2023-09-23T05:09:00.414Z,14.90
2023-09-23T05:11:36.520Z,13.20
2023-09-23T05:14:11.750Z,17.60
2023-09-23T05:16:44.959Z,14.90
2023-09-23T05:19:20.648Z,16.10
2023-09-23T05:21:52.908Z,13.80
2023-09-23T05:24:28.229Z,18.60
2023-09-23T05:27:01.400Z,14.40
2023-09-23T05:29:33.924Z,11.50
2023-09-23T05:32:06.243Z,16.00
2023-09-23T05:34:41.171Z,16.90
2023-09-23T05:37:14.019Z,12.90
2023-09-23T05:39:47.556Z,13.30
2023-09-23T05:42:25.315Z,13.50
2023-09-23T05:44:57.849Z,11.80
2023-09-23T05:47:29.853Z,12.50
2023-09-23T05:50:03.241Z,14.00
2023-09-23T05:52:37.771Z,15.30
2023-09-23T05:55:12.392Z,12.30
2023-09-23T05:57:45.260Z,11.10
2023-09-23T06:00:19.187Z,13.70
2023-09-23T06:02:54.453Z,11.50
2023-09-23T06:05:28.543Z,14.10
2023-09-23T06:08:05.277Z,9.80
2023-09-23T06:10:38.277Z,12.80
2023-09-23T06:13:14.747Z,11.00
2023-09-23T06:15:47.364Z,10.60
2023-09-23T06:18:19.978Z,11.90
2023-09-23T06:21:01.815Z,12.60
2023-09-23T06:23:35.398Z,11.10
2023-09-23T06:26:07.809Z,11.70
2023-09-23T06:28:42.570Z,8.60
2023-09-23T06:31:15.177Z,9.10
2023-09-23T06:33:47.606Z,8.70
2023-09-23T06:36:21.653Z,9.40
2023-09-23T06:38:53.919Z,11.70
2023-09-23T06:41:26.092Z,6.10
2023-09-23T06:43:58.260Z,8.60
2023-09-23T06:46:30.637Z,8.90
2023-09-23T06:49:04.315Z,7.90
2023-09-23T06:51:36.767Z,7.10
2023-09-23T06:54:09.032Z,6.80
2023-09-23T06:56:42.178Z,9.50
2023-09-23T06:59:14.447Z,6.30
2023-09-23T07:01:47.058Z,6.50
2023-09-23T07:04:19.346Z,6.20
2023-09-23T07:06:52.151Z,5.90
2023-09-23T07:09:24.126Z,6.20
2023-09-23T07:11:56.472Z,4.90
2023-09-23T07:14:28.722Z,8.60
2023-09-23T07:17:01.706Z,9.50
2023-09-23T07:19:33.916Z,7.60
2023-09-23T07:22:07.134Z,5.70
2023-09-23T07:24:40.704Z,6.70
2023-09-23T07:27:15.859Z,7.20
2023-09-23T07:29:47.828Z,4.60
2023-09-23T07:32:20.064Z,5.20
2023-09-23T07:34:52.251Z,8.80
2023-09-23T07:37:24.547Z,5.60
2023-09-23T07:39:56.701Z,6.90
2023-09-23T07:42:29.199Z,3.80
2023-09-23T07:45:01.285Z,5.60
2023-09-23T07:47:34.196Z,6.00
2023-09-23T07:50:07.220Z,4.90
2023-09-23T07:52:42.256Z,4.70
2023-09-23T07:55:15.333Z,4.40
2023-09-23T07:57:47.755Z,3.20
2023-09-23T08:00:20.478Z,7.20
2023-09-23T08:02:53.369Z,3.80
2023-09-23T08:05:25.826Z,5.40
2023-09-23T08:07:58.246Z,4.00
2023-09-23T08:10:30.653Z,5.40
2023-09-23T08:13:05.274Z,4.50
2023-09-23T08:15:37.527Z,4.00
2023-09-23T08:18:14.702Z,6.00
2023-09-23T08:20:47.222Z,6.10
2023-09-23T08:23:20.199Z,6.80
2023-09-23T08:25:52.529Z,6.70
2023-09-23T08:28:25.486Z,5.30
2023-09-23T08:30:57.872Z,7.80
2023-09-23T08:33:30.202Z,6.30
2023-09-23T08:36:02.601Z,5.20
2023-09-23T08:38:35.798Z,4.90
2023-09-23T08:41:08.513Z,4.30
2023-09-23T08:43:45.337Z,4.50
2023-09-23T08:46:21.020Z,4.80
2023-09-23T08:48:56.248Z,3.10
2023-09-23T08:51:29.000Z,3.40
2023-09-23T08:54:01.919Z,3.20
2023-09-23T08:56:35.540Z,4.80
2023-09-23T08:59:10.598Z,2.20
2023-09-23T09:01:49.012Z,1.80
2023-09-23T09:04:21.070Z,1.60
2023-09-23T09:06:55.115Z,1.80
2023-09-23T09:09:27.859Z,2.20
2023-09-23T09:12:01.020Z,2.10
2023-09-23T09:14:34.657Z,2.30
2023-09-23T09:17:21.149Z,1.60
2023-09-23T09:19:53.563Z,1.80
2023-09-23T09:22:25.806Z,1.70
2023-09-23T09:24:58.137Z,1.80
2023-09-23T09:27:30.282Z,3.00
2023-09-23T09:32:38.385Z,2.20
2023-09-23T09:35:16.340Z,1.70
2023-09-23T09:40:22.620Z,2.00
2023-09-23T09:42:56.673Z,1.90
2023-09-23T09:45:35.682Z,2.00
2023-09-23T09:48:12.661Z,2.30
2023-09-23T09:50:47.375Z,2.50
2023-09-23T09:53:22.800Z,2.10
2023-09-23T09:55:57.655Z,4.30
2023-09-23T09:58:39.662Z,2.60
2023-09-23T10:01:14.872Z,2.60
2023-09-23T10:03:51.983Z,2.80
2023-09-23T10:06:25.309Z,2.50
2023-09-23T10:09:00.800Z,3.20
2023-09-23T10:11:38.034Z,2.80
2023-09-23T10:14:18.377Z,4.50
2023-09-23T10:16:54.338Z,5.40
2023-09-23T10:19:39.794Z,3.90
2023-09-23T10:22:19.484Z,4.00
2023-09-23T10:25:06.074Z,4.20
2023-09-23T10:27:57.769Z,2.60
2023-09-23T10:30:30.590Z,6.60
2023-09-23T10:33:03.331Z,2.70
2023-09-23T10:35:37.603Z,2.60
2023-09-23T10:38:22.050Z,3.00
2023-09-23T10:40:55.702Z,2.80
2023-09-23T10:43:29.002Z,2.40
2023-09-23T10:46:03.521Z,3.40
2023-09-23T10:48:37.288Z,2.80
2023-09-23T10:51:10.235Z,4.20
2023-09-23T10:53:43.828Z,2.10
2023-09-23T10:56:15.892Z,2.50
2023-09-23T10:58:50.629Z,2.10
2023-09-23T11:01:23.440Z,2.50
2023-09-23T11:03:56.370Z,5.20
2023-09-23T11:06:28.874Z,3.00
2023-09-23T11:09:04.933Z,4.20
2023-09-23T11:11:38.905Z,3.30
2023-09-23T11:14:16.453Z,1.90
2023-09-23T11:16:49.860Z,3.40
2023-09-23T11:19:23.164Z,4.00
2023-09-23T11:21:55.613Z,4.30
2023-09-23T11:24:27.929Z,3.30
2023-09-23T11:27:00.097Z,7.50
2023-09-23T11:29:32.432Z,4.40
2023-09-23T11:32:04.757Z,3.90
2023-09-23T11:34:37.889Z,2.40
2023-09-23T11:37:11.604Z,3.60
2023-09-23T11:39:46.453Z,7.60
2023-09-23T11:42:20.652Z,6.60
2023-09-23T11:44:52.839Z,5.30
2023-09-23T11:47:25.773Z,4.30
2023-09-23T11:49:57.844Z,3.20
2023-09-23T11:52:32.380Z,4.00
2023-09-23T11:55:06.175Z,2.40
2023-09-23T11:57:38.656Z,2.90
2023-09-23T12:00:16.503Z,4.00
2023-09-23T12:02:50.058Z,2.20
2023-09-23T12:05:28.431Z,3.60
2023-09-23T12:08:01.854Z,2.90
2023-09-23T12:10:35.065Z,2.80
2023-09-23T12:13:08.559Z,4.40
2023-09-23T12:15:41.802Z,3.90
2023-09-23T12:18:17.756Z,3.40
2023-09-23T12:20:52.162Z,3.20
2023-09-23T12:23:27.218Z,3.90
2023-09-23T12:26:00.017Z,6.20
2023-09-23T12:28:33.302Z,3.80
2023-09-23T12:31:05.643Z,2.70
2023-09-23T12:33:38.203Z,4.60
2023-09-23T12:36:11.108Z,2.40
2023-09-23T12:38:44.238Z,4.10
2023-09-23T12:41:17.332Z,4.50
2023-09-23T12:43:49.536Z,5.40
2023-09-23T12:46:21.951Z,1.70
2023-09-23T12:48:54.230Z,2.50
2023-09-23T12:51:26.608Z,7.10
2023-09-23T12:53:59.203Z,6.40
2023-09-23T12:56:31.386Z,9.90
2023-09-23T12:59:03.791Z,4.10
2023-09-23T13:01:37.038Z,4.90
2023-09-23T13:04:09.456Z,6.50
2023-09-23T13:06:41.679Z,5.00
2023-09-23T13:09:14.000Z,6.10
2023-09-23T13:11:46.215Z,4.70
2023-09-23T13:14:18.881Z,3.60
2023-09-23T13:16:52.500Z,4.10
2023-09-23T13:19:25.019Z,4.40
2023-09-23T13:21:57.144Z,3.20
2023-09-23T13:24:32.668Z,3.70
2023-09-23T13:27:05.448Z,3.60
2023-09-23T13:29:41.545Z,2.10
2023-09-23T13:32:17.778Z,2.30
2023-09-23T13:34:50.172Z,2.50
2023-09-23T13:37:22.514Z,3.20
2023-09-23T13:39:59.176Z,4.10
2023-09-23T13:42:31.553Z,2.90
2023-09-23T13:45:03.800Z,3.20
2023-09-23T13:47:38.644Z,3.10
2023-09-23T13:50:11.657Z,4.50
2023-09-23T13:52:45.082Z,4.30
2023-09-23T13:55:17.160Z,4.10
2023-09-23T13:57:49.378Z,4.00
2023-09-23T14:00:21.668Z,3.00
2023-09-23T14:02:53.716Z,3.80
2023-09-23T14:05:26.100Z,2.60
2023-09-23T14:07:58.440Z,2.80
2023-09-23T14:10:30.676Z,3.40
2023-09-23T14:13:06.159Z,5.90
2023-09-23T14:15:38.798Z,4.50
2023-09-23T14:18:14.152Z,5.40
2023-09-23T14:20:47.170Z,4.30
2023-09-23T14:23:21.745Z,6.00
2023-09-23T14:25:54.004Z,8.20
2023-09-23T14:28:28.346Z,11.60
2023-09-23T14:31:00.462Z,10.50
2023-09-23T14:33:32.740Z,11.40
2023-09-23T14:36:06.412Z,10.50
2023-09-23T14:38:39.275Z,10.80
2023-09-23T14:41:14.375Z,7.70
2023-09-23T14:43:49.433Z,5.50
2023-09-23T14:46:21.954Z,7.60
2023-09-23T14:48:54.294Z,4.60
2023-09-23T14:51:26.505Z,5.80
2023-09-23T14:54:01.977Z,5.70
2023-09-23T14:56:34.535Z,5.50
2023-09-23T14:59:06.851Z,5.30
2023-09-23T15:01:39.974Z,5.10
2023-09-23T15:04:12.886Z,4.70
2023-09-23T15:06:47.398Z,4.60
2023-09-23T15:09:19.649Z,4.80
2023-09-23T15:11:51.770Z,5.10
2023-09-23T15:14:26.658Z,4.30
2023-09-23T15:16:59.193Z,7.60
2023-09-23T15:19:31.628Z,5.50
2023-09-23T15:22:03.973Z,4.70
2023-09-23T15:24:37.380Z,7.50
2023-09-23T15:27:12.619Z,7.50
2023-09-23T15:29:49.046Z,6.10
2023-09-23T15:32:21.664Z,8.10
2023-09-23T15:34:54.716Z,10.70
2023-09-23T15:37:26.944Z,9.40
2023-09-23T15:40:05.434Z,10.20
2023-09-23T15:42:44.376Z,5.30
2023-09-23T15:45:16.769Z,5.90
2023-09-23T15:47:49.481Z,11.90
2023-09-23T15:50:21.711Z,9.80
2023-09-23T15:52:57.473Z,13.80
2023-09-23T15:58:02.625Z,11.60
2023-09-23T16:00:36.135Z,8.90
2023-09-23T16:03:13.963Z,10.30
2023-09-23T16:05:49.474Z,11.20
2023-09-23T16:08:25.359Z,8.10
2023-09-23T16:10:57.382Z,8.10
2023-09-23T16:13:32.506Z,8.60
2023-09-23T16:16:05.279Z,8.90
2023-09-23T16:18:38.106Z,13.40
2023-09-23T16:21:13.016Z,11.10
2023-09-23T16:23:47.434Z,7.00
2023-09-23T16:26:21.210Z,10.50
2023-09-23T16:28:53.513Z,8.50
2023-09-23T16:31:28.902Z,6.00
2023-09-23T16:34:03.448Z,11.90
2023-09-23T16:36:35.997Z,9.10
2023-09-23T16:39:10.988Z,9.20
2023-09-23T16:41:44.890Z,7.50
2023-09-23T16:44:17.108Z,4.70
2023-09-23T16:46:51.399Z,9.70
2023-09-23T16:49:26.116Z,8.50
2023-09-23T16:52:00.063Z,7.50
2023-09-23T16:54:35.204Z,9.50
2023-09-23T16:57:08.839Z,10.80
2023-09-23T16:59:45.037Z,13.20
2023-09-23T17:02:19.056Z,11.90
2023-09-23T17:04:51.538Z,11.70
2023-09-23T17:07:24.241Z,12.20
2023-09-23T17:09:56.973Z,10.50
2023-09-23T17:12:29.147Z,12.40
2023-09-23T17:15:02.679Z,8.30
2023-09-23T17:17:36.391Z,7.30
2023-09-23T17:20:10.915Z,9.00
2023-09-23T17:22:43.073Z,9.10
2023-09-23T17:25:16.191Z,8.70
2023-09-23T17:27:50.884Z,9.50
2023-09-23T17:30:23.878Z,7.20
2023-09-23T17:33:04.529Z,7.50
2023-09-23T17:35:43.510Z,7.90
2023-09-23T17:38:19.074Z,19.90
2023-09-23T17:40:53.951Z,36.40
2023-09-23T17:43:30.691Z,40.50
2023-09-23T17:46:05.719Z,37.00
2023-09-23T17:48:37.964Z,34.40
2023-09-23T17:51:10.367Z,28.40
2023-09-23T17:53:42.517Z,20.70
2023-09-23T17:56:17.677Z,19.50
2023-09-23T17:58:50.405Z,23.10
2023-09-23T18:01:22.880Z,20.80
2023-09-23T18:03:55.695Z,21.80
2023-09-23T18:06:31.204Z,21.80
2023-09-23T18:09:03.770Z,21.60
2023-09-23T18:11:37.363Z,21.40
2023-09-23T18:14:09.828Z,17.80
2023-09-23T18:16:42.029Z,14.80
2023-09-23T18:19:17.231Z,17.30
2023-09-23T18:21:51.105Z,12.20
2023-09-23T18:24:23.414Z,12.60
2023-09-23T18:26:55.827Z,12.10
2023-09-23T18:29:28.449Z,10.60
2023-09-23T18:32:00.702Z,13.70
2023-09-23T18:34:35.685Z,11.00
2023-09-23T18:37:09.108Z,12.50
2023-09-23T18:39:44.428Z,13.00
2023-09-23T18:42:16.753Z,9.30
2023-09-23T18:44:50.121Z,10.60
2023-09-23T18:47:23.003Z,10.70
2023-09-23T18:49:57.228Z,9.00
2023-09-23T18:52:30.579Z,12.30
2023-09-23T18:55:02.964Z,10.30
2023-09-23T18:57:37.805Z,12.30
2023-09-23T19:00:14.266Z,9.70
2023-09-23T19:02:46.685Z,15.20
2023-09-23T19:05:21.818Z,13.80
2023-09-23T19:07:56.566Z,12.40
2023-09-23T19:10:35.749Z,14.00
2023-09-23T19:13:08.345Z,13.30
2023-09-23T19:15:40.484Z,11.20
2023-09-23T19:18:17.098Z,14.90
2023-09-23T19:20:51.099Z,14.60
2023-09-23T19:23:33.374Z,15.20
2023-09-23T19:26:05.844Z,14.10
2023-09-23T19:28:40.099Z,15.30
2023-09-23T19:31:12.392Z,15.30
2023-09-23T19:33:45.672Z,15.60
2023-09-23T19:36:20.167Z,13.30
2023-09-23T19:38:52.490Z,15.30
2023-09-23T19:41:27.431Z,15.80
2023-09-23T19:43:59.564Z,12.70
2023-09-23T19:46:34.756Z,11.50
2023-09-23T19:49:06.986Z,16.60
2023-09-23T19:51:39.467Z,22.10
2023-09-23T19:54:12.236Z,13.90
2023-09-23T19:56:46.493Z,14.90
2023-09-23T19:59:21.080Z,14.50
2023-09-23T20:01:53.986Z,12.90
2023-09-23T20:04:25.899Z,11.10
2023-09-23T20:07:00.051Z,10.90
2023-09-23T20:09:33.820Z,9.40
2023-09-23T20:12:07.826Z,9.50
2023-09-23T20:14:44.170Z,11.50
2023-09-23T20:17:19.605Z,8.80
2023-09-23T20:19:52.346Z,8.60
2023-09-23T20:22:31.136Z,8.90
2023-09-23T20:25:03.522Z,6.90
2023-09-23T20:27:35.803Z,8.20
2023-09-23T20:30:10.334Z,9.30
2023-09-23T20:32:44.478Z,12.40
2023-09-23T20:35:17.046Z,12.60
2023-09-23T20:37:52.750Z,10.50
2023-09-23T20:40:27.074Z,7.20
2023-09-23T20:43:02.313Z,10.30
2023-09-23T20:45:35.193Z,5.70
2023-09-23T20:48:12.109Z,7.30
2023-09-23T20:50:45.224Z,7.20
2023-09-23T20:53:17.911Z,5.80
2023-09-23T20:55:50.647Z,8.30
2023-09-23T20:58:23.558Z,6.20
2023-09-23T21:00:55.692Z,6.20
2023-09-23T21:03:32.698Z,6.20
2023-09-23T21:06:08.127Z,7.60
2023-09-23T21:08:40.864Z,6.30
2023-09-23T21:11:14.023Z,6.00
2023-09-23T21:13:48.023Z,6.20
2023-09-23T21:16:22.375Z,7.60
2023-09-23T21:18:58.975Z,6.50
2023-09-23T21:21:35.801Z,5.50
2023-09-23T21:24:11.442Z,4.90
2023-09-23T21:26:43.740Z,6.40
2023-09-23T21:29:17.119Z,5.80
2023-09-23T21:31:49.619Z,5.80
2023-09-23T21:34:21.976Z,6.50
2023-09-23T21:36:54.184Z,9.50
2023-09-23T21:39:28.360Z,4.40
2023-09-23T21:42:03.069Z,4.80
2023-09-23T21:44:44.937Z,5.00
2023-09-23T21:47:18.109Z,4.80
2023-09-23T21:49:50.995Z,5.10
2023-09-23T21:52:23.157Z,8.70
2023-09-23T21:54:55.617Z,5.10
2023-09-23T21:57:27.754Z,4.80
2023-09-23T22:00:00.554Z,5.90
2023-09-23T22:02:32.977Z,5.40
2023-09-23T22:05:05.949Z,8.90
2023-09-23T22:07:39.412Z,8.00
2023-09-23T22:10:13.299Z,6.10
2023-09-23T22:12:46.169Z,7.30
2023-09-23T22:15:18.607Z,8.60
2023-09-23T22:17:50.997Z,10.60
2023-09-23T22:20:28.537Z,6.10
2023-09-23T22:23:03.264Z,4.30
2023-09-23T22:25:41.192Z,5.70
2023-09-23T22:28:13.883Z,5.80
2023-09-23T22:30:46.827Z,6.40
2023-09-23T22:33:19.303Z,3.80
2023-09-23T22:35:51.889Z,6.90
2023-09-23T22:38:24.067Z,4.00
2023-09-23T22:40:56.925Z,4.20
2023-09-23T22:43:30.606Z,4.90
2023-09-23T22:46:06.978Z,6.20
2023-09-23T22:48:39.347Z,4.80
2023-09-23T22:51:11.552Z,4.70
2023-09-23T22:53:47.175Z,4.60
2023-09-23T22:56:19.804Z,7.50
2023-09-23T22:58:54.289Z,9.30
2023-09-23T23:01:26.614Z,25.80
2023-09-23T23:03:59.127Z,61.80
2023-09-23T23:06:34.968Z,73.30
2023-09-23T23:09:09.100Z,86.10
2023-09-23T23:11:41.379Z,81.90
2023-09-23T23:14:15.811Z,68.90
2023-09-23T23:16:50.736Z,56.00
2023-09-23T23:19:25.228Z,40.50
2023-09-23T23:21:57.317Z,44.50
2023-09-23T23:24:29.551Z,32.40
2023-09-23T23:27:01.636Z,31.80
2023-09-23T23:29:34.261Z,26.40
2023-09-23T23:32:06.621Z,23.70
2023-09-23T23:34:38.731Z,18.20
2023-09-23T23:37:16.146Z,19.60
2023-09-23T23:39:52.105Z,15.30
2023-09-23T23:42:24.304Z,11.10
2023-09-23T23:44:57.869Z,15.10
2023-09-23T23:47:30.470Z,11.90
2023-09-23T23:50:03.712Z,9.20
2023-09-23T23:52:37.768Z,10.40
2023-09-23T23:55:14.114Z,12.50
2023-09-23T23:57:50.107Z,10.00
